sensor_id;sensor_type;location;lat;lon;timestamp;P1;durP1;ratioP1;P2;durP2;ratioP2
50012;SDS011;35901;48.694;9.476;2024-01-10T00:01:58;18.17;;;10.83;;
50012;SDS011;35901;48.694;9.476;2024-01-10T00:04:24;19.13;;;10.80;;
50012;SDS011;35901;48.694;9.476;2024-01-10T00:06:50;17.53;;;10.57;;
50012;SDS011;35901;48.694;9.476;2024-01-10T00:09:16;21.10;;;11.47;;
50012;SDS011;35901;48.694;9.476;2024-01-10T00:11:43;17.70;;;10.10;;
50012;SDS011;35901;48.694;9.476;2024-01-10T00:14:08;17.07;;;10.37;;
50012;SDS011;35901;48.694;9.476;2024-01-10T00:16:34;17.33;;;10.67;;
50012;SDS011;35901;48.694;9.476;2024-01-10T00:19:00;22.57;;;11.50;;
50012;SDS011;35901;48.694;9.476;2024-01-10T00:21:26;17.17;;;10.37;;
50012;SDS011;35901;48.694;9.476;2024-01-10T00:23:52;17.53;;;10.27;;
50012;SDS011;35901;48.694;9.476;2024-01-10T00:26:17;18.20;;;11.13;;
50012;SDS011;35901;48.694;9.476;2024-01-10T00:28:43;17.50;;;10.80;;
50012;SDS011;35901;48.694;9.476;2024-01-10T00:31:11;17.03;;;9.63;;
50012;SDS011;35901;48.694;9.476;2024-01-10T00:33:38;16.93;;;9.67;;
50012;SDS011;35901;48.694;9.476;2024-01-10T00:36:04;14.43;;;9.10;;
50012;SDS011;35901;48.694;9.476;2024-01-10T00:38:31;16.50;;;9.83;;
50012;SDS011;35901;48.694;9.476;2024-01-10T00:40:56;19.07;;;11.57;;
50012;SDS011;35901;48.694;9.476;2024-01-10T00:43:22;19.50;;;10.90;;
50012;SDS011;35901;48.694;9.476;2024-01-10T00:45:48;19.00;;;10.83;;
50012;SDS011;35901;48.694;9.476;2024-01-10T00:48:13;17.80;;;11.03;;
50012;SDS011;35901;48.694;9.476;2024-01-10T00:50:39;14.27;;;9.27;;
50012;SDS011;35901;48.694;9.476;2024-01-10T00:53:04;20.10;;;11.43;;
50012;SDS011;35901;48.694;9.476;2024-01-10T00:55:30;23.47;;;11.80;;
50012;SDS011;35901;48.694;9.476;2024-01-10T00:57:56;18.93;;;11.23;;
50012;SDS011;35901;48.694;9.476;2024-01-10T01:00:21;18.50;;;10.77;;
50012;SDS011;35901;48.694;9.476;2024-01-10T01:02:47;20.37;;;12.10;;
50012;SDS011;35901;48.694;9.476;2024-01-10T01:05:13;22.80;;;12.50;;
50012;SDS011;35901;48.694;9.476;2024-01-10T01:07:38;21.93;;;12.50;;
50012;SDS011;35901;48.694;9.476;2024-01-10T01:10:05;21.40;;;12.17;;
50012;SDS011;35901;48.694;9.476;2024-01-10T01:12:31;18.67;;;10.67;;
50012;SDS011;35901;48.694;9.476;2024-01-10T01:14:56;18.57;;;10.67;;
50012;SDS011;35901;48.694;9.476;2024-01-10T01:17:22;18.17;;;10.17;;
50012;SDS011;35901;48.694;9.476;2024-01-10T01:19:48;16.53;;;9.93;;
50012;SDS011;35901;48.694;9.476;2024-01-10T01:22:13;20.00;;;11.57;;
50012;SDS011;35901;48.694;9.476;2024-01-10T01:24:39;18.77;;;11.73;;
50012;SDS011;35901;48.694;9.476;2024-01-10T01:27:12;19.50;;;11.23;;
50012;SDS011;35901;48.694;9.476;2024-01-10T01:29:38;19.37;;;11.63;;
50012;SDS011;35901;48.694;9.476;2024-01-10T01:32:03;19.70;;;11.90;;
50012;SDS011;35901;48.694;9.476;2024-01-10T01:34:29;19.57;;;11.60;;
50012;SDS011;35901;48.694;9.476;2024-01-10T01:36:55;20.37;;;11.67;;
50012;SDS011;35901;48.694;9.476;2024-01-10T01:39:21;20.93;;;12.10;;
50012;SDS011;35901;48.694;9.476;2024-01-10T01:41:47;18.47;;;11.33;;
50012;SDS011;35901;48.694;9.476;2024-01-10T01:44:13;19.43;;;11.47;;
50012;SDS011;35901;48.694;9.476;2024-01-10T01:46:45;21.33;;;11.83;;
50012;SDS011;35901;48.694;9.476;2024-01-10T01:49:12;18.60;;;11.43;;
50012;SDS011;35901;48.694;9.476;2024-01-10T01:51:39;14.60;;;9.43;;
50012;SDS011;35901;48.694;9.476;2024-01-10T01:54:06;17.13;;;10.80;;
50012;SDS011;35901;48.694;9.476;2024-01-10T01:56:33;20.20;;;12.03;;
50012;SDS011;35901;48.694;9.476;2024-01-10T01:59:01;19.70;;;11.53;;
50012;SDS011;35901;48.694;9.476;2024-01-10T02:01:28;20.93;;;11.00;;
50012;SDS011;35901;48.694;9.476;2024-01-10T02:03:53;18.77;;;10.77;;
50012;SDS011;35901;48.694;9.476;2024-01-10T02:06:20;22.90;;;12.60;;
50012;SDS011;35901;48.694;9.476;2024-01-10T02:08:46;21.77;;;12.57;;
50012;SDS011;35901;48.694;9.476;2024-01-10T02:11:11;20.47;;;12.50;;
50012;SDS011;35901;48.694;9.476;2024-01-10T02:13:37;16.73;;;9.93;;
50012;SDS011;35901;48.694;9.476;2024-01-10T02:16:03;16.27;;;10.17;;
50012;SDS011;35901;48.694;9.476;2024-01-10T02:18:30;18.73;;;11.17;;
50012;SDS011;35901;48.694;9.476;2024-01-10T02:20:56;22.27;;;12.53;;
50012;SDS011;35901;48.694;9.476;2024-01-10T02:23:23;14.03;;;9.23;;
50012;SDS011;35901;48.694;9.476;2024-01-10T02:25:48;22.30;;;11.83;;
50012;SDS011;35901;48.694;9.476;2024-01-10T02:28:14;22.73;;;12.40;;
50012;SDS011;35901;48.694;9.476;2024-01-10T02:30:40;19.67;;;11.47;;
50012;SDS011;35901;48.694;9.476;2024-01-10T02:33:05;21.30;;;12.47;;
50012;SDS011;35901;48.694;9.476;2024-01-10T02:35:34;21.10;;;11.73;;
50012;SDS011;35901;48.694;9.476;2024-01-10T02:38:00;21.17;;;11.73;;
50012;SDS011;35901;48.694;9.476;2024-01-10T02:40:25;21.97;;;11.80;;
50012;SDS011;35901;48.694;9.476;2024-01-10T02:42:51;16.10;;;9.43;;
50012;SDS011;35901;48.694;9.476;2024-01-10T02:45:17;22.40;;;12.13;;
50012;SDS011;35901;48.694;9.476;2024-01-10T02:47:43;15.70;;;10.00;;
50012;SDS011;35901;48.694;9.476;2024-01-10T02:50:09;20.67;;;11.50;;
50012;SDS011;35901;48.694;9.476;2024-01-10T02:57:53;15.63;;;9.83;;
50012;SDS011;35901;48.694;9.476;2024-01-10T03:00:19;23.63;;;12.30;;
50012;SDS011;35901;48.694;9.476;2024-01-10T03:02:44;20.17;;;11.47;;
50012;SDS011;35901;48.694;9.476;2024-01-10T03:05:10;21.80;;;13.33;;
50012;SDS011;35901;48.694;9.476;2024-01-10T03:07:36;21.13;;;12.30;;
50012;SDS011;35901;48.694;9.476;2024-01-10T03:10:01;20.80;;;12.10;;
50012;SDS011;35901;48.694;9.476;2024-01-10T03:12:28;23.40;;;12.73;;
50012;SDS011;35901;48.694;9.476;2024-01-10T03:14:54;21.50;;;12.20;;
50012;SDS011;35901;48.694;9.476;2024-01-10T03:17:20;14.47;;;9.43;;
50012;SDS011;35901;48.694;9.476;2024-01-10T03:19:45;17.30;;;10.50;;
50012;SDS011;35901;48.694;9.476;2024-01-10T03:22:11;20.90;;;12.10;;
50012;SDS011;35901;48.694;9.476;2024-01-10T03:24:37;18.80;;;11.57;;
50012;SDS011;35901;48.694;9.476;2024-01-10T03:27:03;21.93;;;12.13;;
50012;SDS011;35901;48.694;9.476;2024-01-10T03:29:29;22.00;;;12.53;;
50012;SDS011;35901;48.694;9.476;2024-01-10T03:31:55;19.27;;;11.43;;
50012;SDS011;35901;48.694;9.476;2024-01-10T03:34:20;19.80;;;12.07;;
50012;SDS011;35901;48.694;9.476;2024-01-10T03:36:46;16.33;;;9.90;;
50012;SDS011;35901;48.694;9.476;2024-01-10T03:39:12;21.57;;;11.97;;
50012;SDS011;35901;48.694;9.476;2024-01-10T03:41:37;21.80;;;11.80;;
50012;SDS011;35901;48.694;9.476;2024-01-10T03:44:03;20.73;;;12.07;;
50012;SDS011;35901;48.694;9.476;2024-01-10T03:46:29;18.33;;;11.30;;
50012;SDS011;35901;48.694;9.476;2024-01-10T03:48:57;20.60;;;12.27;;
50012;SDS011;35901;48.694;9.476;2024-01-10T03:51:22;19.07;;;10.80;;
50012;SDS011;35901;48.694;9.476;2024-01-10T03:53:48;17.17;;;8.20;;
50012;SDS011;35901;48.694;9.476;2024-01-10T03:56:14;19.10;;;10.83;;
50012;SDS011;35901;48.694;9.476;2024-01-10T03:58:40;23.37;;;12.10;;
50012;SDS011;35901;48.694;9.476;2024-01-10T04:01:06;19.77;;;11.03;;
50012;SDS011;35901;48.694;9.476;2024-01-10T04:03:35;17.47;;;10.53;;
50012;SDS011;35901;48.694;9.476;2024-01-10T04:06:04;16.97;;;9.93;;
50012;SDS011;35901;48.694;9.476;2024-01-10T04:08:30;19.37;;;11.80;;
50012;SDS011;35901;48.694;9.476;2024-01-10T04:10:56;20.03;;;11.80;;
50012;SDS011;35901;48.694;9.476;2024-01-10T04:13:22;19.47;;;11.93;;
50012;SDS011;35901;48.694;9.476;2024-01-10T04:15:48;19.50;;;12.20;;
50012;SDS011;35901;48.694;9.476;2024-01-10T04:18:14;21.50;;;11.73;;
50012;SDS011;35901;48.694;9.476;2024-01-10T04:20:40;20.80;;;12.37;;
50012;SDS011;35901;48.694;9.476;2024-01-10T04:23:07;17.00;;;10.47;;
50012;SDS011;35901;48.694;9.476;2024-01-10T04:25:32;20.03;;;11.83;;
50012;SDS011;35901;48.694;9.476;2024-01-10T04:27:58;19.60;;;12.43;;
50012;SDS011;35901;48.694;9.476;2024-01-10T04:30:24;19.87;;;12.03;;
50012;SDS011;35901;48.694;9.476;2024-01-10T04:32:49;20.07;;;11.90;;
50012;SDS011;35901;48.694;9.476;2024-01-10T04:35:15;19.80;;;12.17;;
50012;SDS011;35901;48.694;9.476;2024-01-10T04:37:40;18.83;;;11.47;;
50012;SDS011;35901;48.694;9.476;2024-01-10T04:40:06;19.23;;;12.50;;
50012;SDS011;35901;48.694;9.476;2024-01-10T04:42:32;22.07;;;12.20;;
50012;SDS011;35901;48.694;9.476;2024-01-10T04:44:58;20.70;;;11.87;;
50012;SDS011;35901;48.694;9.476;2024-01-10T04:47:23;21.20;;;11.37;;
50012;SDS011;35901;48.694;9.476;2024-01-10T04:49:49;20.17;;;12.60;;
50012;SDS011;35901;48.694;9.476;2024-01-10T04:52:15;19.47;;;11.17;;
50012;SDS011;35901;48.694;9.476;2024-01-10T04:54:40;19.87;;;11.73;;
50012;SDS011;35901;48.694;9.476;2024-01-10T04:57:06;19.70;;;12.17;;
50012;SDS011;35901;48.694;9.476;2024-01-10T04:59:32;18.67;;;11.60;;
50012;SDS011;35901;48.694;9.476;2024-01-10T05:01:58;20.10;;;11.37;;
50012;SDS011;35901;48.694;9.476;2024-01-10T05:04:24;21.27;;;12.17;;
50012;SDS011;35901;48.694;9.476;2024-01-10T05:06:49;20.93;;;12.87;;
50012;SDS011;35901;48.694;9.476;2024-01-10T05:09:15;18.23;;;11.47;;
50012;SDS011;35901;48.694;9.476;2024-01-10T05:11:40;23.80;;;12.90;;
50012;SDS011;35901;48.694;9.476;2024-01-10T05:14:06;22.43;;;12.43;;
50012;SDS011;35901;48.694;9.476;2024-01-10T05:16:32;20.63;;;12.67;;
50012;SDS011;35901;48.694;9.476;2024-01-10T05:19:00;19.90;;;12.63;;
50012;SDS011;35901;48.694;9.476;2024-01-10T05:21:28;18.23;;;10.20;;
50012;SDS011;35901;48.694;9.476;2024-01-10T05:23:55;19.87;;;12.17;;
50012;SDS011;35901;48.694;9.476;2024-01-10T05:26:20;17.47;;;10.63;;
50012;SDS011;35901;48.694;9.476;2024-01-10T05:28:46;23.27;;;13.33;;
50012;SDS011;35901;48.694;9.476;2024-01-10T05:31:12;22.97;;;13.03;;
50012;SDS011;35901;48.694;9.476;2024-01-10T05:33:37;18.73;;;10.70;;
50012;SDS011;35901;48.694;9.476;2024-01-10T05:36:05;20.73;;;12.83;;
50012;SDS011;35901;48.694;9.476;2024-01-10T05:38:31;22.40;;;13.43;;
50012;SDS011;35901;48.694;9.476;2024-01-10T05:40:56;20.47;;;13.20;;
50012;SDS011;35901;48.694;9.476;2024-01-10T05:43:22;21.43;;;12.80;;
50012;SDS011;35901;48.694;9.476;2024-01-10T05:45:48;22.03;;;12.53;;
50012;SDS011;35901;48.694;9.476;2024-01-10T05:48:14;21.53;;;12.40;;
50012;SDS011;35901;48.694;9.476;2024-01-10T05:50:39;21.20;;;12.67;;
50012;SDS011;35901;48.694;9.476;2024-01-10T05:53:05;21.27;;;12.83;;
50012;SDS011;35901;48.694;9.476;2024-01-10T05:55:31;19.40;;;12.53;;
50012;SDS011;35901;48.694;9.476;2024-01-10T05:57:56;23.57;;;12.93;;
50012;SDS011;35901;48.694;9.476;2024-01-10T06:00:22;22.87;;;12.70;;
50012;SDS011;35901;48.694;9.476;2024-01-10T06:02:48;19.73;;;12.73;;
50012;SDS011;35901;48.694;9.476;2024-01-10T06:05:14;21.23;;;13.20;;
50012;SDS011;35901;48.694;9.476;2024-01-10T06:07:40;23.90;;;12.63;;
50012;SDS011;35901;48.694;9.476;2024-01-10T06:10:06;24.23;;;14.23;;
50012;SDS011;35901;48.694;9.476;2024-01-10T06:12:32;22.67;;;13.20;;
50012;SDS011;35901;48.694;9.476;2024-01-10T06:14:58;24.40;;;13.40;;
50012;SDS011;35901;48.694;9.476;2024-01-10T06:17:23;21.60;;;12.07;;
50012;SDS011;35901;48.694;9.476;2024-01-10T06:19:49;22.83;;;12.53;;
50012;SDS011;35901;48.694;9.476;2024-01-10T06:22:15;23.90;;;13.70;;
50012;SDS011;35901;48.694;9.476;2024-01-10T06:24:42;22.30;;;13.50;;
50012;SDS011;35901;48.694;9.476;2024-01-10T06:27:08;23.97;;;13.57;;
50012;SDS011;35901;48.694;9.476;2024-01-10T06:29:35;26.73;;;15.90;;
50012;SDS011;35901;48.694;9.476;2024-01-10T06:32:01;21.87;;;13.80;;
50012;SDS011;35901;48.694;9.476;2024-01-10T06:34:31;23.07;;;13.77;;
50012;SDS011;35901;48.694;9.476;2024-01-10T06:36:57;24.07;;;13.67;;
50012;SDS011;35901;48.694;9.476;2024-01-10T06:39:23;23.20;;;14.03;;
50012;SDS011;35901;48.694;9.476;2024-01-10T06:41:49;24.60;;;14.53;;
50012;SDS011;35901;48.694;9.476;2024-01-10T06:44:15;23.37;;;13.97;;
50012;SDS011;35901;48.694;9.476;2024-01-10T06:46:44;20.03;;;12.47;;
50012;SDS011;35901;48.694;9.476;2024-01-10T06:49:10;24.37;;;14.13;;
50012;SDS011;35901;48.694;9.476;2024-01-10T06:51:36;24.67;;;14.97;;
50012;SDS011;35901;48.694;9.476;2024-01-10T06:54:02;26.13;;;14.93;;
50012;SDS011;35901;48.694;9.476;2024-01-10T06:56:32;23.43;;;13.60;;
50012;SDS011;35901;48.694;9.476;2024-01-10T06:58:58;25.27;;;14.30;;
50012;SDS011;35901;48.694;9.476;2024-01-10T07:01:25;23.57;;;14.57;;
50012;SDS011;35901;48.694;9.476;2024-01-10T07:03:52;25.67;;;15.03;;
50012;SDS011;35901;48.694;9.476;2024-01-10T07:06:19;24.87;;;14.63;;
50012;SDS011;35901;48.694;9.476;2024-01-10T07:08:45;25.90;;;14.10;;
50012;SDS011;35901;48.694;9.476;2024-01-10T07:11:14;23.20;;;14.40;;
50012;SDS011;35901;48.694;9.476;2024-01-10T07:13:40;26.30;;;14.83;;
50012;SDS011;35901;48.694;9.476;2024-01-10T07:16:06;26.13;;;14.70;;
50012;SDS011;35901;48.694;9.476;2024-01-10T07:18:32;24.63;;;14.80;;
50012;SDS011;35901;48.694;9.476;2024-01-10T07:20:58;23.67;;;13.93;;
50012;SDS011;35901;48.694;9.476;2024-01-10T07:23:24;26.53;;;15.37;;
50012;SDS011;35901;48.694;9.476;2024-01-10T07:25:50;26.43;;;14.57;;
50012;SDS011;35901;48.694;9.476;2024-01-10T07:28:16;27.70;;;15.00;;
50012;SDS011;35901;48.694;9.476;2024-01-10T07:30:42;23.40;;;14.03;;
50012;SDS011;35901;48.694;9.476;2024-01-10T07:33:09;23.40;;;14.53;;
50012;SDS011;35901;48.694;9.476;2024-01-10T07:35:35;26.77;;;14.73;;
50012;SDS011;35901;48.694;9.476;2024-01-10T07:38:01;21.53;;;12.70;;
50012;SDS011;35901;48.694;9.476;2024-01-10T07:40:27;25.83;;;14.23;;
50012;SDS011;35901;48.694;9.476;2024-01-10T07:42:52;19.63;;;12.80;;
50012;SDS011;35901;48.694;9.476;2024-01-10T07:45:18;20.00;;;13.20;;
50012;SDS011;35901;48.694;9.476;2024-01-10T07:47:44;20.93;;;12.70;;
50012;SDS011;35901;48.694;9.476;2024-01-10T07:50:11;27.10;;;14.00;;
50012;SDS011;35901;48.694;9.476;2024-01-10T07:52:39;24.53;;;15.70;;
50012;SDS011;35901;48.694;9.476;2024-01-10T07:55:05;26.07;;;16.07;;
50012;SDS011;35901;48.694;9.476;2024-01-10T07:57:32;26.17;;;14.73;;
50012;SDS011;35901;48.694;9.476;2024-01-10T08:00:05;22.87;;;14.30;;
50012;SDS011;35901;48.694;9.476;2024-01-10T08:02:35;25.30;;;14.47;;
50012;SDS011;35901;48.694;9.476;2024-01-10T08:05:04;23.27;;;14.53;;
50012;SDS011;35901;48.694;9.476;2024-01-10T08:07:33;23.73;;;14.90;;
50012;SDS011;35901;48.694;9.476;2024-01-10T08:10:04;23.13;;;14.50;;
50012;SDS011;35901;48.694;9.476;2024-01-10T08:12:30;27.33;;;15.53;;
50012;SDS011;35901;48.694;9.476;2024-01-10T08:14:56;26.87;;;14.13;;
50012;SDS011;35901;48.694;9.476;2024-01-10T08:17:22;25.07;;;14.53;;
50012;SDS011;35901;48.694;9.476;2024-01-10T08:19:48;25.27;;;14.37;;
50012;SDS011;35901;48.694;9.476;2024-01-10T08:22:14;22.57;;;14.50;;
50012;SDS011;35901;48.694;9.476;2024-01-10T08:24:40;23.80;;;15.23;;
50012;SDS011;35901;48.694;9.476;2024-01-10T08:27:06;25.70;;;16.53;;
50012;SDS011;35901;48.694;9.476;2024-01-10T08:29:32;22.93;;;14.73;;
50012;SDS011;35901;48.694;9.476;2024-01-10T08:31:58;22.80;;;14.77;;
50012;SDS011;35901;48.694;9.476;2024-01-10T08:34:24;23.13;;;14.83;;
50012;SDS011;35901;48.694;9.476;2024-01-10T08:36:49;26.37;;;15.40;;
50012;SDS011;35901;48.694;9.476;2024-01-10T08:39:16;22.50;;;15.30;;
50012;SDS011;35901;48.694;9.476;2024-01-10T08:41:42;24.60;;;16.47;;
50012;SDS011;35901;48.694;9.476;2024-01-10T08:44:12;25.07;;;16.00;;
50012;SDS011;35901;48.694;9.476;2024-01-10T08:46:38;24.83;;;16.93;;
50012;SDS011;35901;48.694;9.476;2024-01-10T08:49:04;24.83;;;16.80;;
50012;SDS011;35901;48.694;9.476;2024-01-10T08:51:29;24.17;;;16.47;;
50012;SDS011;35901;48.694;9.476;2024-01-10T08:53:55;22.97;;;16.30;;
50012;SDS011;35901;48.694;9.476;2024-01-10T08:56:21;22.27;;;15.80;;
50012;SDS011;35901;48.694;9.476;2024-01-10T08:58:48;22.20;;;16.30;;
50012;SDS011;35901;48.694;9.476;2024-01-10T09:01:13;23.97;;;16.03;;
50012;SDS011;35901;48.694;9.476;2024-01-10T09:03:39;21.03;;;16.00;;
50012;SDS011;35901;48.694;9.476;2024-01-10T09:06:05;24.60;;;16.73;;
50012;SDS011;35901;48.694;9.476;2024-01-10T09:08:33;25.23;;;16.63;;
50012;SDS011;35901;48.694;9.476;2024-01-10T09:10:59;23.53;;;16.20;;
50012;SDS011;35901;48.694;9.476;2024-01-10T09:13:24;25.07;;;16.97;;
50012;SDS011;35901;48.694;9.476;2024-01-10T09:15:50;23.47;;;16.40;;
50012;SDS011;35901;48.694;9.476;2024-01-10T09:18:16;23.63;;;15.57;;
50012;SDS011;35901;48.694;9.476;2024-01-10T09:20:41;24.43;;;16.53;;
50012;SDS011;35901;48.694;9.476;2024-01-10T09:23:07;26.10;;;16.20;;
50012;SDS011;35901;48.694;9.476;2024-01-10T09:25:33;24.23;;;17.17;;
50012;SDS011;35901;48.694;9.476;2024-01-10T09:27:58;26.93;;;17.03;;
50012;SDS011;35901;48.694;9.476;2024-01-10T09:30:24;24.47;;;16.30;;
50012;SDS011;35901;48.694;9.476;2024-01-10T09:32:49;25.93;;;17.50;;
50012;SDS011;35901;48.694;9.476;2024-01-10T09:35:15;23.80;;;16.13;;
50012;SDS011;35901;48.694;9.476;2024-01-10T09:37:41;24.13;;;17.40;;
50012;SDS011;35901;48.694;9.476;2024-01-10T09:40:07;21.73;;;15.43;;
50012;SDS011;35901;48.694;9.476;2024-01-10T09:42:33;25.80;;;17.07;;
50012;SDS011;35901;48.694;9.476;2024-01-10T09:45:01;26.23;;;17.73;;
50012;SDS011;35901;48.694;9.476;2024-01-10T09:47:30;23.53;;;16.90;;
50012;SDS011;35901;48.694;9.476;2024-01-10T09:49:57;21.60;;;16.10;;
50012;SDS011;35901;48.694;9.476;2024-01-10T09:52:26;26.63;;;17.60;;
50012;SDS011;35901;48.694;9.476;2024-01-10T09:54:53;22.53;;;16.67;;
50012;SDS011;35901;48.694;9.476;2024-01-10T09:57:26;23.07;;;16.30;;
50012;SDS011;35901;48.694;9.476;2024-01-10T09:59:52;23.70;;;17.33;;
50012;SDS011;35901;48.694;9.476;2024-01-10T10:02:20;22.90;;;16.10;;
50012;SDS011;35901;48.694;9.476;2024-01-10T10:07:21;22.40;;;16.70;;
50012;SDS011;35901;48.694;9.476;2024-01-10T10:09:47;22.77;;;16.37;;
50012;SDS011;35901;48.694;9.476;2024-01-10T10:12:13;24.07;;;17.53;;
50012;SDS011;35901;48.694;9.476;2024-01-10T10:14:38;23.77;;;17.47;;
50012;SDS011;35901;48.694;9.476;2024-01-10T10:17:14;22.80;;;17.57;;
50012;SDS011;35901;48.694;9.476;2024-01-10T10:19:40;22.67;;;16.83;;
50012;SDS011;35901;48.694;9.476;2024-01-10T10:22:09;21.97;;;16.93;;
50012;SDS011;35901;48.694;9.476;2024-01-10T10:24:36;21.17;;;16.53;;
50012;SDS011;35901;48.694;9.476;2024-01-10T10:27:07;21.93;;;15.70;;
50012;SDS011;35901;48.694;9.476;2024-01-10T10:29:35;23.20;;;17.00;;
50012;SDS011;35901;48.694;9.476;2024-01-10T10:32:02;23.80;;;17.23;;
50012;SDS011;35901;48.694;9.476;2024-01-10T10:34:30;25.27;;;16.90;;
50012;SDS011;35901;48.694;9.476;2024-01-10T10:36:57;22.23;;;16.50;;
50012;SDS011;35901;48.694;9.476;2024-01-10T10:39:23;22.00;;;17.70;;
50012;SDS011;35901;48.694;9.476;2024-01-10T10:41:49;24.30;;;17.50;;
50012;SDS011;35901;48.694;9.476;2024-01-10T10:44:18;23.67;;;17.70;;
50012;SDS011;35901;48.694;9.476;2024-01-10T10:46:46;23.30;;;17.60;;
50012;SDS011;35901;48.694;9.476;2024-01-10T10:49:17;21.87;;;15.40;;
50012;SDS011;35901;48.694;9.476;2024-01-10T10:51:48;24.57;;;17.80;;
50012;SDS011;35901;48.694;9.476;2024-01-10T10:54:14;23.90;;;16.73;;
50012;SDS011;35901;48.694;9.476;2024-01-10T10:56:41;24.63;;;17.70;;
50012;SDS011;35901;48.694;9.476;2024-01-10T10:59:09;24.50;;;18.10;;
50012;SDS011;35901;48.694;9.476;2024-01-10T11:01:37;24.03;;;17.23;;
50012;SDS011;35901;48.694;9.476;2024-01-10T11:04:05;22.90;;;17.17;;
50012;SDS011;35901;48.694;9.476;2024-01-10T11:06:31;23.67;;;17.70;;
50012;SDS011;35901;48.694;9.476;2024-01-10T11:08:59;23.27;;;17.20;;
50012;SDS011;35901;48.694;9.476;2024-01-10T11:16:59;23.87;;;17.83;;
50012;SDS011;35901;48.694;9.476;2024-01-10T11:24:58;24.03;;;17.00;;
50012;SDS011;35901;48.694;9.476;2024-01-10T11:27:23;25.17;;;17.97;;
50012;SDS011;35901;48.694;9.476;2024-01-10T11:29:51;25.97;;;18.93;;
50012;SDS011;35901;48.694;9.476;2024-01-10T11:32:17;22.83;;;17.93;;
50012;SDS011;35901;48.694;9.476;2024-01-10T11:34:49;25.03;;;18.23;;
50012;SDS011;35901;48.694;9.476;2024-01-10T11:37:18;27.93;;;19.07;;
50012;SDS011;35901;48.694;9.476;2024-01-10T11:39:44;23.37;;;17.50;;
50012;SDS011;35901;48.694;9.476;2024-01-10T11:42:10;26.33;;;18.50;;
50012;SDS011;35901;48.694;9.476;2024-01-10T11:44:46;22.80;;;17.50;;
50012;SDS011;35901;48.694;9.476;2024-01-10T11:47:16;22.97;;;18.03;;
50012;SDS011;35901;48.694;9.476;2024-01-10T11:49:53;23.57;;;17.63;;
50012;SDS011;35901;48.694;9.476;2024-01-10T11:52:21;23.40;;;16.93;;
50012;SDS011;35901;48.694;9.476;2024-01-10T12:16:58;24.60;;;18.37;;
50012;SDS011;35901;48.694;9.476;2024-01-10T12:19:24;25.67;;;19.10;;
50012;SDS011;35901;48.694;9.476;2024-01-10T12:21:50;24.50;;;19.27;;
50012;SDS011;35901;48.694;9.476;2024-01-10T12:24:17;23.93;;;18.87;;
50012;SDS011;35901;48.694;9.476;2024-01-10T12:26:47;23.57;;;18.27;;
50012;SDS011;35901;48.694;9.476;2024-01-10T12:29:16;22.63;;;17.63;;
50012;SDS011;35901;48.694;9.476;2024-01-10T12:31:42;24.97;;;18.87;;
50012;SDS011;35901;48.694;9.476;2024-01-10T12:34:10;25.57;;;19.33;;
50012;SDS011;35901;48.694;9.476;2024-01-10T12:36:36;26.73;;;19.27;;
50012;SDS011;35901;48.694;9.476;2024-01-10T12:39:02;23.77;;;17.50;;
50012;SDS011;35901;48.694;9.476;2024-01-10T12:41:29;26.57;;;19.37;;
50012;SDS011;35901;48.694;9.476;2024-01-10T12:43:55;26.43;;;19.67;;
50012;SDS011;35901;48.694;9.476;2024-01-10T12:46:21;28.40;;;19.73;;
50012;SDS011;35901;48.694;9.476;2024-01-10T12:49:02;27.47;;;19.43;;
50012;SDS011;35901;48.694;9.476;2024-01-10T12:51:30;27.70;;;19.37;;
50012;SDS011;35901;48.694;9.476;2024-01-10T12:53:58;27.97;;;20.43;;
50012;SDS011;35901;48.694;9.476;2024-01-10T12:56:25;28.80;;;20.10;;
50012;SDS011;35901;48.694;9.476;2024-01-10T12:58:51;27.43;;;18.87;;
50012;SDS011;35901;48.694;9.476;2024-01-10T13:01:17;28.23;;;18.50;;
50012;SDS011;35901;48.694;9.476;2024-01-10T13:03:42;30.93;;;19.97;;
50012;SDS011;35901;48.694;9.476;2024-01-10T13:06:08;30.43;;;20.37;;
50012;SDS011;35901;48.694;9.476;2024-01-10T13:08:34;29.17;;;19.67;;
50012;SDS011;35901;48.694;9.476;2024-01-10T13:11:01;27.00;;;18.93;;
50012;SDS011;35901;48.694;9.476;2024-01-10T13:13:34;27.97;;;18.87;;
50012;SDS011;35901;48.694;9.476;2024-01-10T13:16:00;27.63;;;18.07;;
50012;SDS011;35901;48.694;9.476;2024-01-10T13:18:28;28.00;;;19.03;;
50012;SDS011;35901;48.694;9.476;2024-01-10T13:20:54;31.07;;;18.17;;
50012;SDS011;35901;48.694;9.476;2024-01-10T13:23:21;27.60;;;18.97;;
50012;SDS011;35901;48.694;9.476;2024-01-10T13:25:50;28.03;;;17.80;;
50012;SDS011;35901;48.694;9.476;2024-01-10T13:28:16;27.67;;;20.13;;
50012;SDS011;35901;48.694;9.476;2024-01-10T13:30:43;30.97;;;20.63;;
50012;SDS011;35901;48.694;9.476;2024-01-10T13:33:09;29.10;;;19.93;;
50012;SDS011;35901;48.694;9.476;2024-01-10T13:35:35;27.90;;;19.67;;
50012;SDS011;35901;48.694;9.476;2024-01-10T13:38:02;32.03;;;22.03;;
50012;SDS011;35901;48.694;9.476;2024-01-10T13:40:28;30.53;;;18.93;;
50012;SDS011;35901;48.694;9.476;2024-01-10T13:42:53;32.43;;;20.77;;
50012;SDS011;35901;48.694;9.476;2024-01-10T13:45:19;35.70;;;22.07;;
50012;SDS011;35901;48.694;9.476;2024-01-10T13:47:45;31.13;;;19.80;;
50012;SDS011;35901;48.694;9.476;2024-01-10T13:50:11;31.73;;;19.80;;
50012;SDS011;35901;48.694;9.476;2024-01-10T13:52:37;32.07;;;19.73;;
50012;SDS011;35901;48.694;9.476;2024-01-10T13:55:03;34.03;;;22.30;;
50012;SDS011;35901;48.694;9.476;2024-01-10T13:57:30;34.40;;;20.27;;
50012;SDS011;35901;48.694;9.476;2024-01-10T13:59:57;32.90;;;19.40;;
50012;SDS011;35901;48.694;9.476;2024-01-10T14:02:23;35.97;;;21.50;;
50012;SDS011;35901;48.694;9.476;2024-01-10T14:04:49;31.33;;;20.33;;
50012;SDS011;35901;48.694;9.476;2024-01-10T14:07:15;25.60;;;14.60;;
50012;SDS011;35901;48.694;9.476;2024-01-10T14:09:41;31.23;;;20.77;;
50012;SDS011;35901;48.694;9.476;2024-01-10T14:12:07;33.73;;;20.40;;
50012;SDS011;35901;48.694;9.476;2024-01-10T14:14:32;33.30;;;20.80;;
50012;SDS011;35901;48.694;9.476;2024-01-10T14:16:58;34.33;;;19.40;;
50012;SDS011;35901;48.694;9.476;2024-01-10T14:19:24;31.33;;;20.30;;
50012;SDS011;35901;48.694;9.476;2024-01-10T14:21:49;29.33;;;20.07;;
50012;SDS011;35901;48.694;9.476;2024-01-10T14:24:15;28.17;;;19.20;;
50012;SDS011;35901;48.694;9.476;2024-01-10T14:26:41;31.53;;;19.60;;
50012;SDS011;35901;48.694;9.476;2024-01-10T14:29:07;29.33;;;17.70;;
50012;SDS011;35901;48.694;9.476;2024-01-10T14:31:32;31.30;;;19.30;;
50012;SDS011;35901;48.694;9.476;2024-01-10T14:33:58;31.17;;;19.33;;
50012;SDS011;35901;48.694;9.476;2024-01-10T14:36:25;28.53;;;18.77;;
50012;SDS011;35901;48.694;9.476;2024-01-10T14:38:50;29.70;;;18.70;;
50012;SDS011;35901;48.694;9.476;2024-01-10T14:41:16;30.87;;;20.43;;
50012;SDS011;35901;48.694;9.476;2024-01-10T14:43:42;30.53;;;19.47;;
50012;SDS011;35901;48.694;9.476;2024-01-10T14:46:08;27.30;;;18.87;;
50012;SDS011;35901;48.694;9.476;2024-01-10T14:48:35;31.70;;;20.67;;
50012;SDS011;35901;48.694;9.476;2024-01-10T14:51:01;30.30;;;18.43;;
50012;SDS011;35901;48.694;9.476;2024-01-10T14:53:27;33.10;;;20.43;;
50012;SDS011;35901;48.694;9.476;2024-01-10T14:55:53;31.87;;;19.97;;
50012;SDS011;35901;48.694;9.476;2024-01-10T14:58:18;32.17;;;20.40;;